createdAt,value
2018-04-28T00:02:12.891Z,6.00
2018-04-28T00:04:41.194Z,6.70
2018-04-28T00:07:09.256Z,6.10
2018-04-28T00:09:37.618Z,5.87
2018-04-28T00:12:05.196Z,5.83
2018-04-28T00:14:33.692Z,6.60
2018-04-28T00:17:02.980Z,6.73
2018-04-28T00:19:31.266Z,7.20
2018-04-28T00:22:09.825Z,6.60
2018-04-28T00:24:40.069Z,5.97
2018-04-28T00:27:10.129Z,6.50
2018-04-28T00:29:38.458Z,6.50
2018-04-28T00:32:08.991Z,7.00
2018-04-28T00:34:38.968Z,6.40
2018-04-28T00:37:09.005Z,6.77
2018-04-28T00:39:44.265Z,7.03
2018-04-28T00:42:11.869Z,6.87
2018-04-28T00:44:39.445Z,6.80
2018-04-28T00:47:23.507Z,6.90
2018-04-28T00:49:58.686Z,6.60
2018-04-28T00:52:30.100Z,6.83
2018-04-28T00:54:57.670Z,7.73
2018-04-28T00:57:28.775Z,7.20
2018-04-28T00:59:59.997Z,7.63
2018-04-28T01:02:28.468Z,7.73
2018-04-28T01:04:56.031Z,7.27
2018-04-28T01:07:24.509Z,6.67
2018-04-28T01:10:11.754Z,6.60
2018-04-28T01:12:41.257Z,7.00
2018-04-28T01:15:15.360Z,6.40
2018-04-28T01:17:47.496Z,7.17
2018-04-28T01:20:30.671Z,7.70
2018-04-28T01:23:04.564Z,7.33
2018-04-28T01:25:35.767Z,6.50
2018-04-28T01:28:04.316Z,6.40
2018-04-28T01:33:34.128Z,6.87
2018-04-28T01:36:02.469Z,7.33
2018-04-28T01:38:36.865Z,7.13
2018-04-28T01:41:31.384Z,7.37
2018-04-28T01:46:56.480Z,7.10
2018-04-28T01:49:28.443Z,7.30
2018-04-28T01:51:56.786Z,7.90
2018-04-28T01:54:43.802Z,7.33
2018-04-28T01:57:17.315Z,6.10
2018-04-28T01:59:49.576Z,6.50
2018-04-28T02:02:22.422Z,7.57
2018-04-28T02:04:53.988Z,7.20
2018-04-28T02:07:21.907Z,8.27
2018-04-28T02:09:53.185Z,6.70
2018-04-28T02:15:31.373Z,7.13
2018-04-28T02:18:23.834Z,8.33
2018-04-28T02:20:56.345Z,6.67
2018-04-28T02:23:44.592Z,7.43
2018-04-28T02:26:14.104Z,7.23
2018-04-28T02:28:42.505Z,6.67
2018-04-28T02:31:15.944Z,8.20
2018-04-28T02:33:46.081Z,7.80
2018-04-28T02:36:20.609Z,7.13
2018-04-28T02:38:49.072Z,8.03
2018-04-28T02:41:20.665Z,7.50
2018-04-28T02:43:54.242Z,7.50
2018-04-28T02:49:19.961Z,7.40
2018-04-28T02:52:06.111Z,7.60
2018-04-28T02:54:40.389Z,8.13
2018-04-28T02:57:23.395Z,8.30
2018-04-28T02:59:55.572Z,8.43
2018-04-28T03:02:33.965Z,7.70
2018-04-28T03:05:06.710Z,7.83
2018-04-28T03:07:35.084Z,8.03
2018-04-28T03:10:03.587Z,7.70
2018-04-28T03:12:31.299Z,8.37
2018-04-28T03:15:01.392Z,8.13
2018-04-28T03:17:32.727Z,7.93
2018-04-28T03:22:56.080Z,8.70
2018-04-28T03:25:28.488Z,8.40
2018-04-28T03:28:25.809Z,8.43
2018-04-28T03:31:08.135Z,8.60
2018-04-28T03:33:47.484Z,7.77
2018-04-28T03:36:34.554Z,8.17
2018-04-28T03:39:03.830Z,8.37
2018-04-28T03:41:32.072Z,8.43
2018-04-28T03:44:01.453Z,8.97
2018-04-28T03:46:34.977Z,8.47
2018-04-28T03:49:08.435Z,9.30
2018-04-28T03:51:47.730Z,9.07
2018-04-28T03:54:18.028Z,9.13
2018-04-28T03:56:50.794Z,8.50
2018-04-28T03:59:30.730Z,8.93
2018-04-28T04:02:10.187Z,9.20
2018-04-28T04:04:37.726Z,8.10
2018-04-28T04:10:21.507Z,10.10
2018-04-28T04:13:09.754Z,9.47
2018-04-28T04:16:01.170Z,9.60
2018-04-28T04:18:38.824Z,8.50
2018-04-28T04:21:13.304Z,9.83
2018-04-28T04:23:46.795Z,10.10
2018-04-28T04:29:34.067Z,8.80
2018-04-28T04:32:13.685Z,8.50
2018-04-28T04:37:48.256Z,9.60
2018-04-28T04:40:19.626Z,8.67
2018-04-28T04:43:03.463Z,8.77
2018-04-28T04:45:38.915Z,9.50
2018-04-28T04:48:13.321Z,9.93
2018-04-28T04:51:07.605Z,10.97
2018-04-28T04:53:50.680Z,10.33
2018-04-28T04:59:34.615Z,10.13
2018-04-28T05:05:30.234Z,9.43
2018-04-28T05:08:07.239Z,9.63
2018-04-28T05:10:46.581Z,10.47
2018-04-28T05:16:20.749Z,10.47
2018-04-28T05:19:05.901Z,9.20
2018-04-28T05:24:45.133Z,9.23
2018-04-28T05:27:20.460Z,9.97
2018-04-28T05:29:48.845Z,8.83
2018-04-28T05:32:28.092Z,8.70
2018-04-28T05:35:03.355Z,10.20
2018-04-28T05:37:37.637Z,9.50
2018-04-28T05:40:16.734Z,9.60
2018-04-28T05:42:56.873Z,10.57
2018-04-28T05:48:48.078Z,9.13
2018-04-28T05:51:27.516Z,10.63
2018-04-28T05:54:19.187Z,10.23
2018-04-28T06:00:09.874Z,10.70
2018-04-28T06:02:49.374Z,10.03
2018-04-28T06:05:32.265Z,9.67
2018-04-28T06:08:21.439Z,9.67
2018-04-28T06:13:54.627Z,10.40
2018-04-28T06:16:28.818Z,10.67
2018-04-28T06:21:50.207Z,11.47
2018-04-28T06:24:17.945Z,9.73
2018-04-28T06:26:45.548Z,10.67
2018-04-28T06:29:14.484Z,11.00
2018-04-28T06:31:42.061Z,11.70
2018-04-28T06:34:09.667Z,11.13
2018-04-28T06:36:37.208Z,11.50
2018-04-28T06:39:04.851Z,12.10
2018-04-28T06:41:32.405Z,11.20
2018-04-28T06:44:00.019Z,11.40
2018-04-28T06:46:28.475Z,11.83
2018-04-28T06:48:56.055Z,12.70
2018-04-28T06:51:24.362Z,12.67
2018-04-28T06:53:51.949Z,13.37
2018-04-28T06:56:19.601Z,11.70
2018-04-28T06:58:47.163Z,12.30
2018-04-28T07:01:14.760Z,11.83
2018-04-28T07:03:42.346Z,11.80
2018-04-28T07:06:09.919Z,10.40
2018-04-28T07:08:37.453Z,10.63
2018-04-28T07:11:05.868Z,10.83
2018-04-28T07:13:33.597Z,11.30
2018-04-28T07:16:01.958Z,11.20
2018-04-28T07:18:29.536Z,11.73
2018-04-28T07:20:57.839Z,10.53
2018-04-28T07:23:25.401Z,11.23
2018-04-28T07:25:53.025Z,10.40
2018-04-28T07:28:20.549Z,10.60
2018-04-28T07:30:48.142Z,12.10
2018-04-28T07:33:15.724Z,11.60
2018-04-28T07:35:44.059Z,10.77
2018-04-28T07:38:11.700Z,12.77
2018-04-28T07:40:39.673Z,11.50
2018-04-28T07:43:07.259Z,10.90
2018-04-28T07:45:34.840Z,11.00
2018-04-28T07:48:02.425Z,10.57
2018-04-28T07:50:29.986Z,11.33
2018-04-28T07:52:57.644Z,11.50
2018-04-28T07:55:26.029Z,11.30
2018-04-28T07:57:53.684Z,11.50
2018-04-28T08:00:21.349Z,12.03
2018-04-28T08:02:48.855Z,12.17
2018-04-28T08:05:16.940Z,11.13
2018-04-28T08:07:44.747Z,12.13
2018-04-28T08:10:13.121Z,11.00
2018-04-28T08:12:40.681Z,11.30
2018-04-28T08:15:08.315Z,12.43
2018-04-28T08:17:35.913Z,11.83
2018-04-28T08:20:03.615Z,11.70
2018-04-28T08:22:31.282Z,12.67
2018-04-28T08:24:59.745Z,11.37
2018-04-28T08:27:27.373Z,12.13
2018-04-28T08:29:55.894Z,12.37
2018-04-28T08:32:23.428Z,11.57
2018-04-28T08:34:51.094Z,12.37
2018-04-28T08:37:18.823Z,11.80
2018-04-28T08:39:46.416Z,11.57
2018-04-28T08:42:14.033Z,12.10
2018-04-28T08:44:42.909Z,10.60
2018-04-28T08:47:10.499Z,10.20
2018-04-28T08:49:38.068Z,11.33
2018-04-28T08:52:07.273Z,10.83
2018-04-28T08:54:35.805Z,11.70
2018-04-28T08:57:03.387Z,9.73
2018-04-28T08:59:43.835Z,11.00
2018-04-28T09:02:11.399Z,11.90
2018-04-28T09:04:38.975Z,10.40
2018-04-28T09:07:29.435Z,10.03
2018-04-28T09:09:57.026Z,11.00
2018-04-28T09:12:24.608Z,10.47
2018-04-28T09:14:52.169Z,9.47
2018-04-28T09:17:21.409Z,10.23
2018-04-28T09:19:48.938Z,9.70
2018-04-28T09:22:16.529Z,10.40
2018-04-28T09:24:44.121Z,12.40
2018-04-28T09:27:11.956Z,10.13
2018-04-28T09:29:39.517Z,10.93
2018-04-28T09:32:07.060Z,9.60
2018-04-28T09:34:34.896Z,10.07
2018-04-28T09:37:02.480Z,10.80
2018-04-28T09:39:30.047Z,10.30
2018-04-28T09:41:57.637Z,8.57
2018-04-28T09:44:25.511Z,10.37
2018-04-28T09:46:53.066Z,9.53
2018-04-28T09:49:20.615Z,8.97
2018-04-28T09:54:22.123Z,10.87
2018-04-28T09:56:49.756Z,10.50
2018-04-28T09:59:18.174Z,10.40
2018-04-28T10:01:48.151Z,10.20
2018-04-28T10:04:21.296Z,10.83
2018-04-28T10:06:50.085Z,10.43
2018-04-28T10:09:18.396Z,10.07
2018-04-28T10:11:45.919Z,10.67
2018-04-28T10:14:13.485Z,10.03
2018-04-28T10:16:41.394Z,10.30
2018-04-28T10:19:09.008Z,9.93
2018-04-28T10:21:37.470Z,9.33
2018-04-28T10:24:05.018Z,8.67
2018-04-28T10:26:32.558Z,7.87
2018-04-28T10:29:00.604Z,7.43
2018-04-28T10:31:29.125Z,7.70
2018-04-28T10:33:56.810Z,7.13
2018-04-28T10:36:24.326Z,7.47
2018-04-28T10:38:51.901Z,7.60
2018-04-28T10:41:19.466Z,7.37
2018-04-28T10:43:47.124Z,7.00
2018-04-28T10:46:15.569Z,7.47
2018-04-28T10:48:43.217Z,7.30
2018-04-28T10:51:11.535Z,7.17
2018-04-28T10:53:39.172Z,7.57
2018-04-28T10:56:07.342Z,8.00
2018-04-28T10:58:34.897Z,6.17
2018-04-28T11:01:03.374Z,6.53
2018-04-28T11:03:31.277Z,6.43
2018-04-28T11:05:58.861Z,5.30
2018-04-28T11:08:26.409Z,5.67
2018-04-28T11:10:54.430Z,5.13
2018-04-28T11:13:22.910Z,5.97
2018-04-28T11:15:50.464Z,5.47
2018-04-28T11:18:18.093Z,5.90
2018-04-28T11:20:46.291Z,5.43
2018-04-28T11:23:14.845Z,6.43
2018-04-28T11:25:43.160Z,6.67
2018-04-28T11:28:11.342Z,5.40
2018-04-28T11:30:40.364Z,5.80
2018-04-28T11:33:09.289Z,5.27
2018-04-28T11:35:36.843Z,5.57
2018-04-28T11:38:04.505Z,5.17
2018-04-28T11:40:32.769Z,5.30
2018-04-28T11:43:00.685Z,5.77
2018-04-28T11:45:28.266Z,4.77
2018-04-28T11:47:56.575Z,5.23
2018-04-28T11:50:24.936Z,5.80
2018-04-28T11:52:53.554Z,5.43
2018-04-28T11:55:21.099Z,4.93
2018-04-28T11:57:49.650Z,5.63
2018-04-28T12:00:18.031Z,5.23
2018-04-28T12:02:46.192Z,5.10
2018-04-28T12:05:13.766Z,5.10
2018-04-28T12:07:41.476Z,6.03
2018-04-28T12:10:09.109Z,7.03
2018-04-28T12:12:37.415Z,9.97
2018-04-28T12:15:04.999Z,7.53
2018-04-28T12:17:32.577Z,6.77
2018-04-28T12:20:00.165Z,7.87
2018-04-28T12:22:27.741Z,8.10
2018-04-28T12:24:55.303Z,7.13
2018-04-28T12:27:22.845Z,6.47
2018-04-28T12:29:51.581Z,6.90
2018-04-28T12:32:19.097Z,5.70
2018-04-28T12:34:46.664Z,9.00
2018-04-28T12:37:14.210Z,5.80
2018-04-28T12:39:42.632Z,5.73
2018-04-28T12:42:10.164Z,6.67
2018-04-28T12:44:37.791Z,6.30
2018-04-28T12:47:06.185Z,6.20
2018-04-28T12:49:33.758Z,6.57
2018-04-28T12:52:01.284Z,7.30
2018-04-28T12:54:29.579Z,6.70
2018-04-28T12:56:57.213Z,7.07
2018-04-28T12:59:25.542Z,5.30
2018-04-28T13:01:53.163Z,5.17
2018-04-28T13:04:20.689Z,6.50
2018-04-28T13:06:48.942Z,7.50
2018-04-28T13:09:16.502Z,5.10
2018-04-28T13:11:44.154Z,6.60
2018-04-28T13:14:11.733Z,5.90
2018-04-28T13:16:39.285Z,5.50
2018-04-28T13:19:06.858Z,5.93
2018-04-28T13:21:34.384Z,6.23
2018-04-28T13:24:02.238Z,5.23
2018-04-28T13:26:30.450Z,6.33
2018-04-28T13:28:58.001Z,5.50
2018-04-28T13:31:25.595Z,5.40
2018-04-28T13:33:53.188Z,4.93
2018-04-28T13:36:21.480Z,5.37
2018-04-28T13:38:49.047Z,6.23
2018-04-28T13:41:16.889Z,5.13
2018-04-28T13:43:45.206Z,5.47
2018-04-28T13:46:12.795Z,5.03
2018-04-28T13:48:40.387Z,5.83
2018-04-28T13:51:08.254Z,5.00
2018-04-28T13:53:35.814Z,6.17
2018-04-28T13:56:05.341Z,5.80
2018-04-28T13:58:32.902Z,5.67
2018-04-28T14:01:00.674Z,5.00
2018-04-28T14:03:28.236Z,5.90
2018-04-28T14:05:55.782Z,5.30
2018-04-28T14:08:23.358Z,5.60
2018-04-28T14:10:50.981Z,5.77
2018-04-28T14:13:18.829Z,5.90
2018-04-28T14:15:46.444Z,5.67
2018-04-28T14:18:14.198Z,6.73
2018-04-28T14:20:41.778Z,5.63
2018-04-28T14:23:09.344Z,5.83
2018-04-28T14:25:37.086Z,6.10
2018-04-28T14:28:05.185Z,5.47
2018-04-28T14:30:32.826Z,5.67
2018-04-28T14:33:00.371Z,5.80
2018-04-28T14:35:28.182Z,6.03
2018-04-28T14:37:56.223Z,5.90
2018-04-28T14:40:23.825Z,6.47
2018-04-28T14:42:51.381Z,6.30
2018-04-28T14:45:18.923Z,6.10
2018-04-28T14:47:46.512Z,5.77
2018-04-28T14:50:14.023Z,6.17
2018-04-28T14:52:42.443Z,5.77
2018-04-28T14:55:09.964Z,5.20
2018-04-28T14:57:37.538Z,6.50
2018-04-28T15:00:05.168Z,5.80
2018-04-28T15:02:33.938Z,5.67
2018-04-28T15:05:02.307Z,6.57
2018-04-28T15:07:29.902Z,6.80
2018-04-28T15:09:58.190Z,6.83
2018-04-28T15:12:26.055Z,6.33
2018-04-28T15:14:53.596Z,6.00
2018-04-28T15:17:21.889Z,6.43
2018-04-28T15:19:49.457Z,7.03
2018-04-28T15:22:18.251Z,6.30
2018-04-28T15:24:46.606Z,6.57
2018-04-28T15:27:14.185Z,6.83
2018-04-28T15:29:41.780Z,7.00
2018-04-28T15:32:09.676Z,6.60
2018-04-28T15:34:37.955Z,6.90
2018-04-28T15:37:06.448Z,6.70
2018-04-28T15:39:34.748Z,7.37
2018-04-28T15:42:02.860Z,7.00
2018-04-28T15:44:30.434Z,7.23
2018-04-28T15:46:57.967Z,7.70
2018-04-28T15:49:25.525Z,6.87
2018-04-28T15:51:53.091Z,6.47
2018-04-28T15:54:20.640Z,7.70
2018-04-28T15:56:48.220Z,6.20
2018-04-28T15:59:16.771Z,6.00
2018-04-28T16:01:44.320Z,6.83
2018-04-28T16:04:11.897Z,6.67
2018-04-28T16:06:39.434Z,6.70
2018-04-28T16:09:06.978Z,8.13
2018-04-28T16:11:36.125Z,7.10
2018-04-28T16:14:03.770Z,7.50
2018-04-28T16:16:31.343Z,7.17
2018-04-28T16:18:59.551Z,7.57
2018-04-28T16:21:27.082Z,7.43
2018-04-28T16:23:54.667Z,6.77
2018-04-28T16:26:22.240Z,7.00
2018-04-28T16:28:49.784Z,7.50
2018-04-28T16:31:17.630Z,9.30
2018-04-28T16:33:45.224Z,9.40
2018-04-28T16:36:12.857Z,12.97
2018-04-28T16:38:40.448Z,8.73
2018-04-28T16:41:08.000Z,6.80
2018-04-28T16:43:35.894Z,6.50
2018-04-28T16:46:03.450Z,6.83
2018-04-28T16:48:31.746Z,10.40
2018-04-28T16:50:59.369Z,8.57
2018-04-28T16:53:27.717Z,9.80
2018-04-28T16:55:55.270Z,9.23
2018-04-28T16:58:22.841Z,7.60
2018-04-28T17:00:50.638Z,8.63
2018-04-28T17:03:18.194Z,9.07
2018-04-28T17:05:45.829Z,8.33
2018-04-28T17:08:13.443Z,7.27
2018-04-28T17:10:41.930Z,7.43
2018-04-28T17:13:09.455Z,7.07
2018-04-28T17:15:37.036Z,7.60
2018-04-28T17:18:06.403Z,7.67
2018-04-28T17:20:34.059Z,7.17
2018-04-28T17:23:01.622Z,7.97
2018-04-28T17:25:29.183Z,6.87
2018-04-28T17:27:56.758Z,8.73
2018-04-28T17:30:24.316Z,8.10
2018-04-28T17:32:51.846Z,9.13
2018-04-28T17:35:19.407Z,8.73
2018-04-28T17:37:47.470Z,7.30
2018-04-28T17:40:15.030Z,7.50
2018-04-28T17:42:42.602Z,6.97
2018-04-28T17:45:10.352Z,6.50
2018-04-28T17:47:38.022Z,6.97
2018-04-28T17:50:05.580Z,7.17
2018-04-28T17:52:33.114Z,6.80
2018-04-28T17:55:01.300Z,8.00
2018-04-28T17:57:28.837Z,7.97
2018-04-28T17:59:56.397Z,8.27
2018-04-28T18:02:24.721Z,7.70
2018-04-28T18:04:52.277Z,7.97
2018-04-28T18:07:19.867Z,7.63
2018-04-28T18:09:47.410Z,8.30
2018-04-28T18:12:15.173Z,7.70
2018-04-28T18:14:42.906Z,10.90
2018-04-28T18:17:11.505Z,12.83
2018-04-28T18:19:39.094Z,9.40
2018-04-28T18:22:07.374Z,8.67
2018-04-28T18:24:34.941Z,7.93
2018-04-28T18:27:02.490Z,8.30
2018-04-28T18:29:31.432Z,8.13
2018-04-28T18:32:01.963Z,7.53
2018-04-28T18:34:29.711Z,8.20
2018-04-28T18:36:58.057Z,7.73
2018-04-28T18:39:25.645Z,8.50
2018-04-28T18:41:53.426Z,13.10
2018-04-28T18:44:22.636Z,15.37
2018-04-28T18:46:50.231Z,13.60
2018-04-28T18:49:17.787Z,12.67
2018-04-28T18:51:45.418Z,9.37
2018-04-28T18:54:12.898Z,8.57
2018-04-28T18:56:40.503Z,8.40
2018-04-28T18:59:08.585Z,8.73
2018-04-28T19:01:37.347Z,13.60
2018-04-28T19:04:06.611Z,14.83
2018-04-28T19:06:34.153Z,16.20
2018-04-28T19:09:01.746Z,11.33
2018-04-28T19:11:29.493Z,9.43
2018-04-28T19:13:57.235Z,9.13
2018-04-28T19:16:24.842Z,8.30
2018-04-28T19:18:52.401Z,10.00
2018-04-28T19:21:20.701Z,10.40
2018-04-28T19:23:48.275Z,10.73
2018-04-28T19:26:16.675Z,10.10
2018-04-28T19:28:44.243Z,9.80
2018-04-28T19:31:12.931Z,8.50
2018-04-28T19:33:42.926Z,7.80
2018-04-28T19:36:11.286Z,7.90
2018-04-28T19:38:38.828Z,8.00
2018-04-28T19:41:06.602Z,8.40
2018-04-28T19:43:34.368Z,9.43
2018-04-28T19:46:02.896Z,7.63
2018-04-28T19:48:30.505Z,8.27
2018-04-28T19:51:01.503Z,7.57
2018-04-28T19:53:29.582Z,9.53
2018-04-28T19:55:57.938Z,7.80
2018-04-28T19:58:26.252Z,9.10
2018-04-28T20:00:53.866Z,10.30
2018-04-28T20:03:22.290Z,9.67
2018-04-28T20:05:50.536Z,8.80
2018-04-28T20:08:18.847Z,8.60
2018-04-28T20:10:47.573Z,8.70
2018-04-28T20:13:15.950Z,8.90
2018-04-28T20:15:43.651Z,8.20
2018-04-28T20:18:11.192Z,8.00
2018-04-28T20:20:39.819Z,8.37
2018-04-28T20:23:19.314Z,9.30
2018-04-28T20:25:47.016Z,9.10
2018-04-28T20:28:15.164Z,8.47
2018-04-28T20:30:43.457Z,9.10
2018-04-28T20:33:11.069Z,9.13
2018-04-28T20:35:38.635Z,8.80
2018-04-28T20:38:07.783Z,8.10
2018-04-28T20:40:35.380Z,8.67
2018-04-28T20:43:03.012Z,9.67
2018-04-28T20:45:30.571Z,9.40
2018-04-28T20:47:58.138Z,8.77
2018-04-28T21:03:20.766Z,8.40
2018-04-28T21:05:48.308Z,9.17
2018-04-28T21:08:16.570Z,9.57
2018-04-28T21:10:45.195Z,10.03
2018-04-28T21:13:12.747Z,9.53
2018-04-28T21:15:40.327Z,8.70
2018-04-28T21:18:08.081Z,9.80
2018-04-28T21:20:35.814Z,7.93
2018-04-28T21:23:03.694Z,9.10
2018-04-28T21:25:31.266Z,9.23
2018-04-28T21:27:59.138Z,9.90
2018-04-28T21:30:26.681Z,9.77
2018-04-28T21:32:54.240Z,9.10
2018-04-28T21:35:21.860Z,9.10
2018-04-28T21:37:50.842Z,10.40
2018-04-28T21:40:18.439Z,9.20
2018-04-28T21:42:46.028Z,9.50
2018-04-28T21:45:13.584Z,8.90
2018-04-28T21:47:41.109Z,9.27
2018-04-28T21:50:08.729Z,8.63
2018-04-28T21:52:36.263Z,10.37
2018-04-28T21:55:04.729Z,9.40
2018-04-28T21:57:32.338Z,8.80
2018-04-28T21:59:59.963Z,9.40
2018-04-28T22:02:27.516Z,9.23
2018-04-28T22:04:55.951Z,8.97
2018-04-28T22:07:23.499Z,8.77
2018-04-28T22:09:51.063Z,8.80
2018-04-28T22:12:18.872Z,10.23
2018-04-28T22:14:46.379Z,8.93
2018-04-28T22:17:15.144Z,8.87
2018-04-28T22:19:42.714Z,10.00
2018-04-28T22:22:10.255Z,9.33
2018-04-28T22:24:37.831Z,9.13
2018-04-28T22:27:05.426Z,8.40
2018-04-28T22:29:33.070Z,8.90
2018-04-28T22:32:01.723Z,9.93
2018-04-28T22:34:29.282Z,9.73
2018-04-28T22:36:56.829Z,9.07
2018-04-28T22:39:24.568Z,9.13
2018-04-28T22:41:52.873Z,8.77
2018-04-28T22:44:20.431Z,9.30
2018-04-28T22:46:47.954Z,9.23
2018-04-28T22:49:15.888Z,8.23
2018-04-28T22:51:43.966Z,8.53
2018-04-28T22:54:11.547Z,8.67
2018-04-28T22:56:40.621Z,9.07
2018-04-28T22:59:08.669Z,8.40
2018-04-28T23:01:36.215Z,7.70
2018-04-28T23:04:03.781Z,8.67
2018-04-28T23:06:31.338Z,8.90
2018-04-28T23:08:58.901Z,8.00
2018-04-28T23:11:26.622Z,7.40
2018-04-28T23:13:54.176Z,7.73
2018-04-28T23:16:22.618Z,8.10
2018-04-28T23:18:50.178Z,6.80
2018-04-28T23:21:17.721Z,8.20
2018-04-28T23:23:45.246Z,8.27
2018-04-28T23:26:12.807Z,8.43
2018-04-28T23:28:40.329Z,8.90
2018-04-28T23:31:07.887Z,8.20
2018-04-28T23:33:35.541Z,7.33
2018-04-28T23:36:03.071Z,7.77
2018-04-28T23:38:30.624Z,7.33
2018-04-28T23:40:58.944Z,8.53
2018-04-28T23:43:26.515Z,7.10
2018-04-28T23:45:54.067Z,7.43
2018-04-28T23:48:21.638Z,6.83
2018-04-28T23:50:49.976Z,7.50
2018-04-28T23:53:18.052Z,7.80
2018-04-28T23:55:45.971Z,7.60
2018-04-28T23:58:13.522Z,6.90
